createdAt,value
2022-08-09T00:00:44.655Z,51.323475
2022-08-09T00:01:54.740Z,51.323448
2022-08-09T00:02:49.635Z,51.323463
2022-08-09T00:04:05.903Z,51.323467
2022-08-09T00:04:42.997Z,51.323479
2022-08-09T00:06:18.781Z,51.323441
2022-08-09T00:06:44.242Z,51.323460
2022-08-09T00:07:44.432Z,51.323452
2022-08-09T00:08:41.931Z,51.323467
2022-08-09T00:09:41.889Z,51.323448
2022-08-09T00:10:41.870Z,51.323444
2022-08-09T00:12:03.830Z,51.323456
2022-08-09T00:12:42.820Z,51.323456
2022-08-09T00:13:41.827Z,51.323437
2022-08-09T00:14:41.777Z,51.323456
2022-08-09T00:15:59.251Z,51.323448
2022-08-09T00:16:42.734Z,51.323475
2022-08-09T00:18:04.701Z,51.323452
2022-08-09T00:18:42.717Z,51.323448
2022-08-09T00:19:41.672Z,51.323463
2022-08-09T00:20:50.049Z,51.323460
2022-08-09T00:21:56.205Z,51.323471
2022-08-09T00:22:42.599Z,51.323463
2022-08-09T00:23:58.196Z,51.323463
2022-08-09T00:24:42.559Z,51.323456
2022-08-09T00:25:41.535Z,51.323471
2022-08-09T00:26:41.518Z,51.323456
2022-08-09T00:27:43.040Z,51.323448
2022-08-09T00:28:41.508Z,51.323456
2022-08-09T00:30:24.755Z,51.323414
2022-08-09T00:30:42.431Z,51.323433
2022-08-09T00:32:00.055Z,51.323437
2022-08-09T00:32:42.495Z,51.323460
2022-08-09T00:33:51.143Z,51.323444
2022-08-09T00:34:46.334Z,51.323460
2022-08-09T00:35:42.691Z,51.323441
2022-08-09T00:36:41.750Z,51.323406
2022-08-09T00:37:41.282Z,51.323448
2022-08-09T00:38:41.289Z,51.323460
2022-08-09T00:40:14.087Z,51.323437
2022-08-09T00:40:52.881Z,51.323452
2022-08-09T00:44:11.595Z,51.323441
2022-08-09T00:44:16.131Z,51.323437
2022-08-09T00:44:19.480Z,51.323444
2022-08-09T00:44:42.134Z,51.323437
2022-08-09T00:45:50.686Z,51.323444
2022-08-09T00:46:55.883Z,51.323467
2022-08-09T00:47:42.076Z,51.323460
2022-08-09T00:48:41.071Z,51.323456
2022-08-09T00:49:42.025Z,51.323448
2022-08-09T00:50:41.002Z,51.323456
2022-08-09T00:51:54.258Z,51.323460
2022-08-09T00:52:41.965Z,51.323437
2022-08-09T00:53:40.968Z,51.323433
2022-08-09T00:54:40.921Z,51.323448
2022-08-09T00:56:05.741Z,51.323441
2022-08-09T00:56:41.875Z,51.323437
2022-08-09T00:57:40.854Z,51.323452
2022-08-09T00:58:40.860Z,51.323448
2022-08-09T00:59:47.181Z,51.323441
2022-08-09T01:00:41.791Z,51.323448
2022-08-09T01:01:44.676Z,51.323460
2022-08-09T01:02:40.749Z,51.323475
2022-08-09T01:03:45.676Z,51.323437
2022-08-09T01:04:41.709Z,51.323444
2022-08-09T01:05:53.637Z,51.323452
2022-08-09T01:06:54.357Z,51.323460
2022-08-09T01:08:01.194Z,51.323429
2022-08-09T01:08:49.492Z,51.323452
2022-08-09T01:09:41.605Z,51.323437
2022-08-09T01:10:40.581Z,51.323448
2022-08-09T01:11:40.559Z,51.323448
2022-08-09T01:12:41.541Z,51.323463
2022-08-09T01:13:41.999Z,51.323448
2022-08-09T01:14:41.520Z,51.323433
2022-08-09T01:15:40.885Z,51.323452
2022-08-09T01:16:47.460Z,51.323444
2022-08-09T01:17:41.435Z,51.323437
2022-08-09T01:18:40.414Z,51.323429
2022-08-09T01:19:51.818Z,51.323433
2022-08-09T01:20:41.375Z,51.323444
2022-08-09T01:21:41.094Z,51.323460
2022-08-09T01:22:40.330Z,51.323441
2022-08-09T01:24:02.382Z,51.323444
2022-08-09T01:24:41.314Z,51.323452
2022-08-09T01:25:41.973Z,51.323448
2022-08-09T01:26:40.246Z,51.323437
2022-08-09T01:27:40.229Z,51.323425
2022-08-09T01:28:40.201Z,51.323433
2022-08-09T01:29:41.114Z,51.323452
2022-08-09T01:30:52.315Z,51.323433
2022-08-09T01:32:30.835Z,51.323421
2022-08-09T01:32:46.193Z,51.323429
2022-08-09T01:33:41.108Z,51.323463
2022-08-09T01:34:40.112Z,51.323463
2022-08-09T01:35:42.258Z,51.323452
2022-08-09T01:36:40.045Z,51.323441
2022-08-09T01:37:43.187Z,51.323429
2022-08-09T01:38:40.999Z,51.323429
2022-08-09T01:39:41.026Z,51.323433
2022-08-09T01:40:39.958Z,51.323456
2022-08-09T01:41:39.937Z,51.323441
2022-08-09T01:42:40.919Z,51.323429
2022-08-09T01:43:50.109Z,51.323441
2022-08-09T01:44:40.903Z,51.323437
2022-08-09T01:45:46.306Z,51.323448
2022-08-09T01:46:40.834Z,51.323460
2022-08-09T01:47:44.697Z,51.323460
2022-08-09T01:48:40.791Z,51.323441
2022-08-09T01:49:39.938Z,51.323437
2022-08-09T01:50:42.033Z,51.323433
2022-08-09T01:51:42.706Z,51.323433
2022-08-09T01:52:41.424Z,51.323437
2022-08-09T01:53:41.283Z,51.323429
2022-08-09T01:54:39.692Z,51.323444
2022-08-09T01:55:39.646Z,51.323437
2022-08-09T01:56:39.626Z,51.323433
2022-08-09T01:57:40.059Z,51.323421
2022-08-09T01:58:40.579Z,51.323414
2022-08-09T01:59:50.765Z,51.323429
2022-08-09T02:00:40.536Z,51.323437
2022-08-09T02:01:58.967Z,51.323437
2022-08-09T02:02:40.490Z,51.323437
2022-08-09T02:03:39.472Z,51.323441
2022-08-09T02:04:40.669Z,51.323433
2022-08-09T02:06:04.005Z,51.323456
2022-08-09T02:06:45.514Z,51.323441
2022-08-09T02:08:39.895Z,51.323452
2022-08-09T02:08:59.102Z,51.323418
2022-08-09T02:09:41.956Z,51.323444
2022-08-09T02:10:39.325Z,51.323448
2022-08-09T02:11:42.223Z,51.323444
2022-08-09T02:12:39.438Z,51.323463
2022-08-09T02:13:40.297Z,51.323444
2022-08-09T02:14:39.268Z,51.323441
2022-08-09T02:15:49.337Z,51.323425
2022-08-09T02:16:59.912Z,51.323433
2022-08-09T02:18:01.139Z,51.323433
2022-08-09T02:18:42.926Z,51.323410
2022-08-09T02:19:43.318Z,51.323425
2022-08-09T02:20:39.111Z,51.323410
2022-08-09T02:21:39.092Z,51.323421
2022-08-09T02:22:39.426Z,51.323425
2022-08-09T02:23:39.779Z,51.323421
2022-08-09T02:24:39.055Z,51.323391
2022-08-09T02:25:41.928Z,51.323399
2022-08-09T02:26:38.989Z,51.323421
2022-08-09T02:27:57.293Z,51.323437
2022-08-09T02:28:39.945Z,51.323414
2022-08-09T02:29:38.945Z,51.323406
2022-08-09T02:30:38.901Z,51.323402
2022-08-09T02:31:38.879Z,51.323406
2022-08-09T02:32:38.858Z,51.323414
2022-08-09T02:34:06.317Z,51.323414
2022-08-09T02:34:52.018Z,51.323448
2022-08-09T02:36:01.927Z,51.323410
2022-08-09T02:36:39.774Z,51.323429
2022-08-09T02:37:38.754Z,51.323425
2022-08-09T02:38:39.734Z,51.323425
2022-08-09T02:39:42.644Z,51.323418
2022-08-09T02:40:39.716Z,51.323406
2022-08-09T02:41:38.678Z,51.323414
2022-08-09T02:42:38.652Z,51.323399
2022-08-09T02:43:42.442Z,51.323383
2022-08-09T02:44:39.640Z,51.323387
2022-08-09T02:45:38.591Z,51.323399
2022-08-09T02:46:38.571Z,51.323402
2022-08-09T02:47:57.351Z,51.323429
2022-08-09T02:48:39.530Z,51.323425
2022-08-09T02:49:41.518Z,51.323418
2022-08-09T02:50:38.493Z,51.323437
2022-08-09T02:51:40.615Z,51.323414
2022-08-09T02:52:38.453Z,51.323406
2022-08-09T02:53:38.430Z,51.323421
2022-08-09T02:54:54.402Z,51.323414
2022-08-09T02:55:57.495Z,51.323410
2022-08-09T02:56:39.378Z,51.323414
2022-08-09T02:57:40.555Z,51.323441
2022-08-09T02:58:39.330Z,51.323399
2022-08-09T02:59:38.336Z,51.323395
2022-08-09T03:00:47.679Z,51.323353
2022-08-09T03:01:43.237Z,51.323387
2022-08-09T03:02:39.287Z,51.323387
2022-08-09T03:04:16.492Z,51.323421
2022-08-09T03:04:39.239Z,51.323399
2022-08-09T03:05:38.191Z,51.323399
2022-08-09T03:06:38.170Z,51.323410
2022-08-09T03:07:38.155Z,51.323406
2022-08-09T03:08:38.128Z,51.323387
2022-08-09T03:09:42.809Z,51.323410
2022-08-09T03:10:38.088Z,51.323383
2022-08-09T03:12:09.811Z,51.323406
2022-08-09T03:12:39.047Z,51.323429
2022-08-09T03:13:43.303Z,51.323410
2022-08-09T03:14:39.037Z,51.323414
2022-08-09T03:16:04.168Z,51.323414
2022-08-09T03:16:44.856Z,51.323437
2022-08-09T03:17:39.947Z,51.323429
2022-08-09T03:18:38.330Z,51.323418
2022-08-09T03:19:59.162Z,51.323391
2022-08-09T03:20:38.889Z,51.323387
2022-08-09T03:21:39.745Z,51.323380
2022-08-09T03:22:41.339Z,51.323406
2022-08-09T03:23:37.826Z,51.323418
2022-08-09T03:24:42.732Z,51.323425
2022-08-09T03:26:02.273Z,51.323437
2022-08-09T03:26:45.141Z,51.323399
2022-08-09T03:27:44.789Z,51.323406
2022-08-09T03:28:38.728Z,51.323414
2022-08-09T03:29:58.140Z,51.323406
2022-08-09T03:30:38.685Z,51.323406
2022-08-09T03:31:42.802Z,51.323414
2022-08-09T03:32:38.651Z,51.323395
2022-08-09T03:33:53.556Z,51.323399
2022-08-09T03:34:38.638Z,51.323418
2022-08-09T03:36:11.643Z,51.323399
2022-08-09T03:36:38.570Z,51.323429
2022-08-09T03:37:55.289Z,51.323452
2022-08-09T03:38:42.430Z,51.323418
2022-08-09T03:39:38.221Z,51.323402
2022-08-09T03:40:37.519Z,51.323406
2022-08-09T03:41:45.958Z,51.323406
2022-08-09T03:42:38.454Z,51.323429
2022-08-09T03:43:37.434Z,51.323429
2022-08-09T03:44:37.410Z,51.323437
2022-08-09T03:46:04.514Z,51.323429
2022-08-09T03:46:39.005Z,51.323410
2022-08-09T03:47:41.911Z,51.323402
2022-08-09T03:48:51.329Z,51.323395
2022-08-09T03:49:38.311Z,51.323414
2022-08-09T03:50:37.316Z,51.323402
2022-08-09T03:51:55.142Z,51.323425
2022-08-09T03:52:38.251Z,51.323421
2022-08-09T03:53:37.839Z,51.323421
2022-08-09T03:54:38.673Z,51.323433
2022-08-09T03:55:40.842Z,51.323414
2022-08-09T03:56:38.172Z,51.323418
2022-08-09T03:57:53.376Z,51.323410
2022-08-09T03:58:38.131Z,51.323406
2022-08-09T03:59:52.983Z,51.323402
2022-08-09T04:00:38.155Z,51.323410
2022-08-09T04:01:37.067Z,51.323410
2022-08-09T04:02:37.352Z,51.323421
2022-08-09T04:04:00.630Z,51.323421
2022-08-09T04:04:38.727Z,51.323395
2022-08-09T04:05:40.377Z,51.323402
2022-08-09T04:06:36.975Z,51.323410
2022-08-09T04:07:52.357Z,51.323425
2022-08-09T04:08:37.934Z,51.323414
2022-08-09T04:09:47.459Z,51.323414
2022-08-09T04:10:37.894Z,51.323406
2022-08-09T04:11:36.875Z,51.323406
2022-08-09T04:12:36.854Z,51.323414
2022-08-09T04:14:37.007Z,51.323406
2022-08-09T04:15:00.916Z,51.323406
2022-08-09T04:15:42.797Z,51.323402
2022-08-09T04:16:37.778Z,51.323376
2022-08-09T04:17:36.753Z,51.323406
2022-08-09T04:18:36.739Z,51.323418
2022-08-09T04:19:51.001Z,51.323383
2022-08-09T04:20:37.722Z,51.323410
2022-08-09T04:21:40.168Z,51.323391
2022-08-09T04:22:36.657Z,51.323383
2022-08-09T04:23:36.632Z,51.323380
2022-08-09T04:24:36.634Z,51.323391
2022-08-09T04:25:37.616Z,51.323387
2022-08-09T04:26:38.132Z,51.323418
2022-08-09T04:27:37.761Z,51.323414
2022-08-09T04:28:36.692Z,51.323418
2022-08-09T04:29:37.529Z,51.323414
2022-08-09T04:30:36.487Z,51.323418
2022-08-09T04:31:37.569Z,51.323425
2022-08-09T04:32:37.520Z,51.323418
2022-08-09T04:33:47.557Z,51.323410
2022-08-09T04:34:37.431Z,51.323410
2022-08-09T04:35:37.372Z,51.323399
2022-08-09T04:36:36.350Z,51.323402
2022-08-09T04:37:45.601Z,51.323399
2022-08-09T04:38:37.309Z,51.323402
2022-08-09T04:39:40.523Z,51.323399
2022-08-09T04:40:36.796Z,51.323399
2022-08-09T04:41:43.649Z,51.323399
2022-08-09T04:42:37.220Z,51.323395
2022-08-09T04:43:36.198Z,51.323433
2022-08-09T04:44:37.206Z,51.323414
2022-08-09T04:45:53.071Z,51.323421
2022-08-09T04:46:57.514Z,51.323429
2022-08-09T04:47:45.062Z,51.323429
2022-08-09T04:48:37.103Z,51.323425
2022-08-09T04:49:52.778Z,51.323437
2022-08-09T04:50:38.032Z,51.323418
2022-08-09T04:51:36.041Z,51.323410
2022-08-09T04:52:36.311Z,51.323418
2022-08-09T04:53:36.004Z,51.323441
2022-08-09T04:54:35.984Z,51.323437
2022-08-09T04:55:40.658Z,51.323437
2022-08-09T04:56:36.949Z,51.323421
2022-08-09T04:57:58.579Z,51.323425
2022-08-09T04:58:36.913Z,51.323414
2022-08-09T04:59:35.913Z,51.323406
2022-08-09T05:00:36.118Z,51.323425
2022-08-09T05:01:35.857Z,51.323448
2022-08-09T05:02:35.840Z,51.323456
2022-08-09T05:03:43.150Z,51.323433
2022-08-09T05:04:36.823Z,51.323425
2022-08-09T05:05:51.988Z,51.323448
2022-08-09T05:06:36.757Z,51.323463
2022-08-09T05:07:36.745Z,51.323505
2022-08-09T05:08:35.728Z,51.323456
2022-08-09T05:09:45.374Z,51.323444
2022-08-09T05:10:36.966Z,51.323421
2022-08-09T05:11:35.949Z,51.323402
2022-08-09T05:12:35.762Z,51.323414
2022-08-09T05:13:38.612Z,51.323448
2022-08-09T05:14:35.621Z,51.323444
2022-08-09T05:15:43.223Z,51.323441
2022-08-09T05:16:43.551Z,51.323410
2022-08-09T05:18:50.389Z,51.323418
2022-08-09T05:18:55.047Z,51.323444
2022-08-09T05:19:45.867Z,51.323437
2022-08-09T05:20:36.543Z,51.323452
2022-08-09T05:21:36.650Z,51.323456
2022-08-09T05:23:53.573Z,51.323463
2022-08-09T05:23:54.844Z,51.323460
2022-08-09T05:24:36.446Z,51.323448
2022-08-09T05:25:35.460Z,51.323418
2022-08-09T05:26:36.656Z,51.323452
2022-08-09T05:27:45.325Z,51.323433
2022-08-09T05:28:36.380Z,51.323444
2022-08-09T05:29:35.583Z,51.323425
2022-08-09T05:30:35.370Z,51.323479
2022-08-09T05:31:44.479Z,51.323471
2022-08-09T05:32:36.308Z,51.323433
2022-08-09T05:33:36.294Z,51.323444
2022-08-09T05:34:36.298Z,51.323433
2022-08-09T05:35:38.898Z,51.323421
2022-08-09T05:36:36.238Z,51.323387
2022-08-09T05:37:38.259Z,51.323406
2022-08-09T05:38:36.203Z,51.323425
2022-08-09T05:39:36.463Z,51.323444
2022-08-09T05:40:36.175Z,51.323448
2022-08-09T05:41:35.177Z,51.323448
2022-08-09T05:42:35.498Z,51.323456
2022-08-09T05:43:35.117Z,51.323471
2022-08-09T05:44:35.829Z,51.323460
2022-08-09T05:45:53.000Z,51.323425
2022-08-09T05:46:36.090Z,51.323448
2022-08-09T05:47:35.046Z,51.323467
2022-08-09T05:48:36.026Z,51.323502
2022-08-09T05:50:25.629Z,51.323502
2022-08-09T05:50:50.802Z,51.323517
2022-08-09T05:51:45.961Z,51.323452
2022-08-09T05:52:36.229Z,51.323471
2022-08-09T05:53:37.227Z,51.323406
2022-08-09T05:54:35.961Z,51.323383
2022-08-09T05:55:34.916Z,51.323441
2022-08-09T05:56:34.893Z,51.323383
2022-08-09T05:57:50.684Z,51.323399
2022-08-09T05:58:35.862Z,51.323452
2022-08-09T05:59:34.867Z,51.323425
2022-08-09T06:00:34.824Z,51.323429
2022-08-09T06:01:42.569Z,51.323429
2022-08-09T06:02:36.092Z,51.323395
2022-08-09T06:03:44.066Z,51.323402
2022-08-09T06:04:35.787Z,51.323387
2022-08-09T06:05:57.565Z,51.323414
2022-08-09T06:06:35.729Z,51.323437
2022-08-09T06:07:34.714Z,51.323433
2022-08-09T06:08:34.696Z,51.323399
2022-08-09T06:09:55.233Z,51.323479
2022-08-09T06:10:35.665Z,51.323444
2022-08-09T06:11:40.646Z,51.323429
2022-08-09T06:12:35.872Z,51.323380
2022-08-09T06:13:34.608Z,51.323349
2022-08-09T06:14:34.619Z,51.323399
2022-08-09T06:15:34.575Z,51.323406
2022-08-09T06:16:34.560Z,51.323410
2022-08-09T06:17:39.993Z,51.323399
2022-08-09T06:18:35.526Z,51.323357
2022-08-09T06:19:34.542Z,51.323380
2022-08-09T06:20:34.497Z,51.323360
2022-08-09T06:21:34.481Z,51.323395
2022-08-09T06:22:36.277Z,51.323410
2022-08-09T06:23:58.952Z,51.323395
2022-08-09T06:24:35.459Z,51.323425
2022-08-09T06:25:34.551Z,51.323414
2022-08-09T06:26:34.424Z,51.323437
2022-08-09T06:27:42.718Z,51.323418
2022-08-09T06:28:35.365Z,51.323410
2022-08-09T06:29:34.349Z,51.323380
2022-08-09T06:30:35.360Z,51.323349
2022-08-09T06:31:39.258Z,51.323372
2022-08-09T06:32:53.251Z,51.323380
2022-08-09T06:33:41.072Z,51.323395
2022-08-09T06:34:35.269Z,51.323380
2022-08-09T06:35:35.810Z,51.323414
2022-08-09T06:36:35.265Z,51.323452
2022-08-09T06:37:53.291Z,51.323441
2022-08-09T06:38:37.349Z,51.323425
2022-08-09T06:39:48.450Z,51.323402
2022-08-09T06:40:35.332Z,51.323399
2022-08-09T06:41:39.728Z,51.323410
2022-08-09T06:42:35.341Z,51.323376
2022-08-09T06:43:35.168Z,51.323406
2022-08-09T06:44:34.115Z,51.323391
2022-08-09T06:46:07.745Z,51.323399
2022-08-09T06:46:39.885Z,51.323391
2022-08-09T06:47:40.084Z,51.323380
2022-08-09T06:48:35.403Z,51.323399
2022-08-09T06:50:11.916Z,51.323414
2022-08-09T06:50:35.053Z,51.323425
2022-08-09T06:51:39.044Z,51.323444
2022-08-09T06:52:34.980Z,51.323414
2022-08-09T06:53:38.647Z,51.323402
2022-08-09T06:54:33.961Z,51.323383
2022-08-09T06:55:33.973Z,51.323406
2022-08-09T06:56:33.929Z,51.323421
2022-08-09T06:58:01.818Z,51.323414
2022-08-09T07:00:50.918Z,51.323418
2022-08-09T07:00:51.246Z,51.323441
2022-08-09T07:00:52.511Z,51.323399
2022-08-09T07:01:35.770Z,51.323441
2022-08-09T07:02:35.081Z,51.323421
2022-08-09T07:03:33.825Z,51.323406
2022-08-09T07:04:34.812Z,51.323391
2022-08-09T07:06:02.295Z,51.323410
2022-08-09T07:06:34.779Z,51.323387
2022-08-09T07:07:59.492Z,51.323429
2022-08-09T07:08:34.751Z,51.323402
2022-08-09T07:09:56.469Z,51.323410
2022-08-09T07:10:34.715Z,51.323395
2022-08-09T07:11:45.660Z,51.323399
2022-08-09T07:12:40.774Z,51.323414
2022-08-09T07:13:45.055Z,51.323441
2022-08-09T07:14:34.681Z,51.323402
2022-08-09T07:16:38.720Z,51.323406
2022-08-09T07:16:39.895Z,51.323410
2022-08-09T07:17:39.544Z,51.323410
2022-08-09T07:18:34.593Z,51.323399
2022-08-09T07:19:33.617Z,51.323425
2022-08-09T07:20:33.563Z,51.323410
2022-08-09T07:21:34.549Z,51.323414
2022-08-09T07:22:35.163Z,51.323410
2022-08-09T07:23:36.230Z,51.323410
2022-08-09T07:24:40.048Z,51.323402
2022-08-09T07:25:42.654Z,51.323418
2022-08-09T07:26:34.472Z,51.323425
2022-08-09T07:27:43.184Z,51.323402
2022-08-09T07:28:34.702Z,51.323414
2022-08-09T07:29:42.477Z,51.323437
2022-08-09T07:30:34.434Z,51.323418
2022-08-09T07:31:38.357Z,51.323418
2022-08-09T07:32:34.980Z,51.323395
2022-08-09T07:33:52.622Z,51.323421
2022-08-09T07:34:34.346Z,51.323456
2022-08-09T07:35:53.474Z,51.323414
2022-08-09T07:36:34.321Z,51.323414
2022-08-09T07:37:43.878Z,51.323399
2022-08-09T07:38:34.288Z,51.323406
2022-08-09T07:39:40.968Z,51.323399
2022-08-09T07:40:54.120Z,51.323391
2022-08-09T07:41:38.651Z,51.323372
2022-08-09T07:42:33.246Z,51.323380
2022-08-09T07:43:33.218Z,51.323380
2022-08-09T07:44:53.352Z,51.323372
2022-08-09T07:45:37.601Z,51.323376
2022-08-09T07:46:34.173Z,51.323376
2022-08-09T07:47:39.594Z,51.323387
2022-08-09T07:48:34.140Z,51.323376
2022-08-09T07:49:33.653Z,51.323357
2022-08-09T07:50:36.723Z,51.323380
2022-08-09T07:52:05.143Z,51.323391
2022-08-09T07:52:35.815Z,51.323360
2022-08-09T07:54:04.402Z,51.323380
2022-08-09T07:54:34.051Z,51.323372
2022-08-09T07:55:41.358Z,51.323383
2022-08-09T07:56:34.121Z,51.323380
2022-08-09T07:57:36.169Z,51.323410
2022-08-09T07:58:32.989Z,51.323414
2022-08-09T07:59:45.924Z,51.323425
2022-08-09T08:00:36.214Z,51.323387
2022-08-09T08:01:34.156Z,51.323387
2022-08-09T08:02:33.336Z,51.323380
2022-08-09T08:03:32.904Z,51.323391
2022-08-09T08:04:33.260Z,51.323387
2022-08-09T08:05:54.256Z,51.323383
2022-08-09T08:06:33.863Z,51.323372
2022-08-09T08:08:43.798Z,51.323383
2022-08-09T08:09:02.523Z,51.323372
2022-08-09T08:09:39.995Z,51.323360
2022-08-09T08:10:34.657Z,51.323372
2022-08-09T08:12:10.415Z,51.323376
2022-08-09T08:12:33.762Z,51.323383
2022-08-09T08:13:39.892Z,51.323364
2022-08-09T08:14:33.729Z,51.323353
2022-08-09T08:15:35.595Z,51.323353
2022-08-09T08:16:34.569Z,51.323364
2022-08-09T08:17:51.944Z,51.323368
2022-08-09T08:18:33.662Z,51.323376
2022-08-09T08:19:32.646Z,51.323368
2022-08-09T08:20:33.521Z,51.323376
2022-08-09T08:21:32.614Z,51.323349
2022-08-09T08:22:32.897Z,51.323372
2022-08-09T08:23:32.571Z,51.323349
2022-08-09T08:24:40.117Z,51.323341
2022-08-09T08:25:43.940Z,51.323345
2022-08-09T08:26:47.450Z,51.323395
2022-08-09T08:27:40.594Z,51.323391
2022-08-09T08:28:35.099Z,51.323399
2022-08-09T08:29:39.531Z,51.323395
2022-08-09T08:30:33.497Z,51.323387
2022-08-09T08:32:02.524Z,51.323383
2022-08-09T08:32:33.439Z,51.323372
2022-08-09T08:33:49.576Z,51.323380
2022-08-09T08:34:33.686Z,51.323376
2022-08-09T08:35:37.171Z,51.323383
2022-08-09T08:36:33.371Z,51.323387
2022-08-09T08:37:41.327Z,51.323406
2022-08-09T08:38:33.338Z,51.323406
2022-08-09T08:39:39.673Z,51.323418
2022-08-09T08:40:33.553Z,51.323387
2022-08-09T08:41:50.979Z,51.323383
2022-08-09T08:42:33.575Z,51.323387
2022-08-09T08:43:32.301Z,51.323368
2022-08-09T08:44:32.282Z,51.323387
2022-08-09T08:45:37.257Z,51.323421
2022-08-09T08:46:41.543Z,51.323406
2022-08-09T08:47:33.187Z,51.323402
2022-08-09T08:48:33.176Z,51.323414
2022-08-09T08:49:38.536Z,51.323406
2022-08-09T08:50:33.169Z,51.323418
2022-08-09T08:51:41.614Z,51.323429
2022-08-09T08:53:37.227Z,51.323429
2022-08-09T08:54:32.084Z,51.323414
2022-08-09T08:55:32.215Z,51.323421
2022-08-09T08:56:32.164Z,51.323425
2022-08-09T08:57:35.272Z,51.323418
2022-08-09T08:58:32.007Z,51.323406
2022-08-09T08:59:46.815Z,51.323391
2022-08-09T09:00:34.500Z,51.323414
2022-08-09T09:01:35.604Z,51.323402
2022-08-09T09:02:33.141Z,51.323410
2022-08-09T09:03:37.111Z,51.323421
2022-08-09T09:04:41.319Z,51.323437
2022-08-09T09:05:58.425Z,51.323418
2022-08-09T09:06:32.934Z,51.323391
2022-08-09T09:07:31.852Z,51.323380
2022-08-09T09:08:40.537Z,51.323376
2022-08-09T09:10:01.897Z,51.323406
2022-08-09T09:10:32.830Z,51.323402
2022-08-09T09:11:33.761Z,51.323387
2022-08-09T09:12:34.520Z,51.323391
2022-08-09T09:13:34.773Z,51.323425
2022-08-09T09:14:32.733Z,51.323429
2022-08-09T09:15:32.453Z,51.323410
2022-08-09T09:16:34.298Z,51.323406
2022-08-09T09:17:51.738Z,51.323414
2022-08-09T09:18:32.673Z,51.323429
2022-08-09T09:19:41.233Z,51.323421
2022-08-09T09:20:33.655Z,51.323433
2022-08-09T09:21:31.621Z,51.323429
2022-08-09T09:22:32.591Z,51.323406
2022-08-09T09:23:38.100Z,51.323402
2022-08-09T09:24:32.557Z,51.323406
2022-08-09T09:26:03.275Z,51.323421
2022-08-09T09:26:32.548Z,51.323429
2022-08-09T09:28:06.557Z,51.323421
2022-08-09T09:29:01.704Z,51.323429
2022-08-09T09:29:45.939Z,51.323441
2022-08-09T09:30:40.238Z,51.323429
2022-08-09T09:32:01.848Z,51.323425
2022-08-09T09:32:34.945Z,51.323425
2022-08-09T09:33:31.464Z,51.323418
2022-08-09T09:34:32.385Z,51.323425
2022-08-09T09:35:33.214Z,51.323425
2022-08-09T09:36:31.376Z,51.323433
2022-08-09T09:37:32.146Z,51.323425
2022-08-09T09:38:36.651Z,51.323433
2022-08-09T09:39:42.677Z,51.323441
2022-08-09T09:40:32.374Z,51.323437
2022-08-09T09:41:33.403Z,51.323425
2022-08-09T09:42:32.441Z,51.323429
2022-08-09T09:43:31.220Z,51.323425
2022-08-09T09:44:32.205Z,51.323429
2022-08-09T09:45:31.708Z,51.323421
2022-08-09T09:46:42.176Z,51.323425
2022-08-09T09:47:38.001Z,51.323429
2022-08-09T09:48:32.129Z,51.323429
2022-08-09T09:49:49.989Z,51.323437
2022-08-09T09:50:32.126Z,51.323433
2022-08-09T09:51:38.365Z,51.323425
2022-08-09T09:52:36.224Z,51.323425
2022-08-09T09:53:57.846Z,51.323414
2022-08-09T09:54:32.021Z,51.323418
2022-08-09T09:55:32.863Z,51.323437
2022-08-09T09:56:33.592Z,51.323429
2022-08-09T09:58:00.542Z,51.323429
2022-08-09T09:58:31.946Z,51.323429
2022-08-09T09:59:35.456Z,51.323429
2022-08-09T10:00:30.944Z,51.323433
2022-08-09T10:01:37.672Z,51.323425
2022-08-09T10:02:32.068Z,51.323421
2022-08-09T10:03:30.886Z,51.323433
2022-08-09T10:04:31.419Z,51.323410
2022-08-09T10:06:01.361Z,51.323425
2022-08-09T10:06:32.204Z,51.323429
2022-08-09T10:07:31.018Z,51.323429
2022-08-09T10:08:30.769Z,51.323421
2022-08-09T10:09:30.749Z,51.323429
2022-08-09T10:10:31.418Z,51.323425
2022-08-09T10:11:59.443Z,51.323421
2022-08-09T10:12:32.705Z,51.323418
2022-08-09T10:13:43.210Z,51.323414
2022-08-09T10:14:33.675Z,51.323421
2022-08-09T10:16:09.149Z,51.323437
2022-08-09T10:16:58.287Z,51.323433
2022-08-09T10:17:54.839Z,51.323429
2022-08-09T10:18:31.597Z,51.323437
2022-08-09T10:19:30.580Z,51.323425
2022-08-09T10:20:35.564Z,51.323433
2022-08-09T10:21:31.548Z,51.323437
2022-08-09T10:22:32.702Z,51.323441
2022-08-09T10:23:30.511Z,51.323433
2022-08-09T10:24:35.637Z,51.323418
2022-08-09T10:25:34.876Z,51.323410
2022-08-09T10:26:31.461Z,51.323410
2022-08-09T10:27:38.793Z,51.323425
2022-08-09T10:28:31.418Z,51.323425
2022-08-09T10:30:26.527Z,51.323425
2022-08-09T10:32:42.421Z,51.323410
2022-08-09T10:34:08.544Z,51.323395
2022-08-09T10:34:33.838Z,51.323425
2022-08-09T10:35:30.301Z,51.323425
2022-08-09T10:36:30.466Z,51.323414
2022-08-09T10:37:30.269Z,51.323437
2022-08-09T10:38:54.912Z,51.323463
2022-08-09T10:39:40.700Z,51.323463
2022-08-09T10:40:33.816Z,51.323452
2022-08-09T10:41:31.346Z,51.323452
2022-08-09T10:42:32.315Z,51.323441
2022-08-09T10:43:36.094Z,51.323467
2022-08-09T10:44:31.731Z,51.323452
2022-08-09T10:45:31.904Z,51.323471
2022-08-09T10:46:30.132Z,51.323433
2022-08-09T10:48:29.236Z,51.323486
2022-08-09T10:48:31.350Z,51.323421
2022-08-09T10:49:49.974Z,51.323509
2022-08-09T10:50:32.992Z,51.323433
2022-08-09T10:51:41.233Z,51.323441
2022-08-09T10:52:31.152Z,51.323490
2022-08-09T10:53:32.070Z,51.323471
2022-08-09T10:54:30.969Z,51.323448
2022-08-09T10:55:35.765Z,51.323441
2022-08-09T10:56:30.957Z,51.323360
2022-08-09T10:57:30.524Z,51.323494
2022-08-09T10:58:29.921Z,51.323555
2022-08-09T10:59:31.071Z,51.323566
2022-08-09T11:00:29.866Z,51.323547
2022-08-09T11:03:11.676Z,51.323418
2022-08-09T11:03:17.889Z,51.323391
2022-08-09T11:03:51.391Z,51.323376
2022-08-09T11:04:32.689Z,51.323437
2022-08-09T11:05:31.064Z,51.323486
2022-08-09T11:06:29.802Z,51.323532
2022-08-09T11:07:57.831Z,51.323578
2022-08-09T11:08:33.233Z,51.323490
2022-08-09T11:09:34.945Z,51.323418
2022-08-09T11:10:31.706Z,51.323429
2022-08-09T11:11:29.696Z,51.323399
2022-08-09T11:12:30.223Z,51.323467
2022-08-09T11:13:51.426Z,51.323479
2022-08-09T11:14:31.808Z,51.323456
2022-08-09T11:15:33.640Z,51.323418
2022-08-09T11:16:35.056Z,51.323399
2022-08-09T11:17:31.106Z,51.323433
2022-08-09T11:18:29.552Z,51.323406
2022-08-09T11:20:10.599Z,51.323402
2022-08-09T11:20:30.512Z,51.323418
2022-08-09T11:21:29.510Z,51.323437
2022-08-09T11:22:30.477Z,51.323402
2022-08-09T11:23:30.189Z,51.323406
2022-08-09T11:24:29.437Z,51.323414
2022-08-09T11:25:45.648Z,51.323441
2022-08-09T11:26:30.429Z,51.323421
2022-08-09T11:28:03.891Z,51.323421